Time;durP1;ratioP1;P1;durP2;ratioP2;P2;SDS_P1;SDS_P2;PMS_P1;PMS_P2;Temp;Humidity;BMP_temperature;BMP_pressure;BME280_temperature;BME280_humidity;BME280_pressure;Samples;Min_cycle;Max_cycle;Signal;HPM_P1;HPM_P2
2022/06/08 00:00:20;;;;;;;1.60;1.50;;;;;;;14.62;91.16;97389.34;6229195;28;20378;-84
2022/06/08 00:03:31;;;;;;;1.97;1.60;;;;;;;14.61;91.56;97382.34;6229751;28;20235;-83
2022/06/08 00:06:42;;;;;;;4.07;1.53;;;;;;;14.59;91.57;97377.19;6242464;28;20727;-84
2022/06/08 00:09:44;;;;;;;1.60;1.50;;;;;;;14.55;91.75;97390.94;6195152;28;20367;-84
2022/06/08 00:12:46;;;;;;;2.43;1.83;;;;;;;14.50;91.88;97377.28;6233106;28;20315;-84
2022/06/08 00:15:48;;;;;;;2.47;1.60;;;;;;;14.51;91.68;97385.09;6216572;28;20234;-83
2022/06/08 00:18:50;;;;;;;2.80;1.50;;;;;;;14.54;92.01;97376.00;6215427;28;20224;-83
2022/06/08 00:21:52;;;;;;;1.60;1.50;;;;;;;14.56;91.77;97377.53;6207806;28;20298;-84
2022/06/08 00:24:54;;;;;;;1.97;1.70;;;;;;;14.55;91.56;97375.03;6232541;28;20231;-84
2022/06/08 00:27:56;;;;;;;1.83;1.60;;;;;;;14.54;91.65;97376.00;6215607;28;20322;-84
2022/06/08 00:30:59;;;;;;;2.37;1.30;;;;;;;14.51;91.62;97374.47;6215955;28;20325;-84
2022/06/08 00:34:01;;;;;;;2.20;1.37;;;;;;;14.52;92.06;97372.66;6215680;28;20228;-84
2022/06/08 00:37:03;;;;;;;4.10;2.07;;;;;;;14.52;91.91;97372.66;6215368;28;20215;-84
2022/06/08 00:40:07;;;;;;;2.13;1.93;;;;;;;14.52;92.05;97362.03;6215278;28;20707;-83
2022/06/08 00:43:09;;;;;;;2.60;2.10;;;;;;;14.50;92.03;97362.19;6235420;28;20728;-83
2022/06/08 00:46:12;;;;;;;2.40;1.90;;;;;;;14.45;91.68;97363.66;6199836;28;20714;-83
2022/06/08 00:49:30;;;;;;;2.00;1.80;;;;;;;14.39;91.83;97351.81;6214756;28;20232;-83
2022/06/08 00:52:34;;;;;;;1.93;1.83;;;;;;;14.36;91.89;97355.59;6231394;28;20235;-84
2022/06/08 00:55:38;;;;;;;2.33;2.00;;;;;;;14.34;91.47;97354.09;6190579;28;20239;-84
2022/06/08 00:58:40;;;;;;;2.77;2.20;;;;;;;14.29;91.50;97346.56;6199428;28;20718;-84
2022/06/08 01:01:51;;;;;;;2.40;1.90;;;;;;;14.24;91.84;97351.53;6247790;28;20251;-84
2022/06/08 01:05:16;;;;;;;2.30;2.10;;;;;;;14.22;91.76;97352.66;6081498;28;20595;-84
2022/06/08 01:08:50;;;;;;;2.83;1.90;;;;;;;14.19;91.85;97347.66;6231569;28;20219;-84
2022/06/08 01:11:59;;;;;;;1.90;1.80;;;;;;;14.20;91.63;97355.47;6208195;28;20235;-84
2022/06/08 01:15:03;;;;;;;4.10;1.93;;;;;;;14.16;91.94;97347.97;6231089;28;20687;-84
2022/06/08 01:18:07;;;;;;;2.67;2.30;;;;;;;14.12;91.64;97342.13;6198480;28;20281;-84
2022/06/08 01:21:18;;;;;;;3.33;2.33;;;;;;;14.12;91.89;97341.31;6242606;28;20231;-84
2022/06/08 01:24:24;;;;;;;2.63;2.37;;;;;;;14.09;92.19;97339.78;6230396;28;20228;-84
2022/06/08 01:27:39;;;;;;;2.33;2.10;;;;;;;14.09;91.81;97338.94;6207052;28;20229;-84
2022/06/08 01:31:00;;;;;;;2.67;2.47;;;;;;;14.06;92.08;97342.75;6206956;28;20235;-84
2022/06/08 01:34:16;;;;;;;2.40;2.20;;;;;;;14.06;92.05;97334.78;6209624;28;20707;-84
2022/06/08 01:37:27;;;;;;;2.30;2.10;;;;;;;14.03;91.98;97332.44;6231083;28;20318;-84
2022/06/08 01:41:10;;;;;;;2.23;2.03;;;;;;;14.02;91.92;97330.78;6230125;28;20247;-84
2022/06/08 01:44:37;;;;;;;4.20;2.20;;;;;;;14.03;91.96;97314.69;6232547;28;21122;-84
2022/06/08 01:47:58;;;;;;;2.67;2.47;;;;;;;14.08;92.06;97318.69;6231356;28;20289;-84
2022/06/08 01:51:21;;;;;;;2.53;1.77;;;;;;;14.08;92.48;97308.09;6229677;28;20265;-84
2022/06/08 01:54:49;;;;;;;2.50;2.30;;;;;;;14.07;92.18;97304.63;6231269;28;20597;-84
2022/06/08 01:58:05;;;;;;;2.40;2.20;;;;;;;14.06;92.34;97299.47;6246802;28;20234;-83
2022/06/08 02:01:48;;;;;;;3.73;2.40;;;;;;;14.08;91.83;97297.47;6230534;28;20250;-84
2022/06/08 02:05:25;;;;;;;2.40;1.90;;;;;;;14.05;91.90;97295.97;6186134;28;20237;-84
2022/06/08 02:08:48;;;;;;;2.20;2.00;;;;;;;14.00;91.91;97277.84;6182472;28;20232;-84
2022/06/08 02:12:03;;;;;;;3.23;2.50;;;;;;;13.97;91.77;97278.16;6188119;28;20231;-84
2022/06/08 02:15:29;;;;;;;2.40;2.20;;;;;;;13.99;92.22;97272.69;6220264;28;20641;-84
2022/06/08 02:18:40;;;;;;;2.47;2.27;;;;;;;13.99;92.17;97267.38;6211572;28;20335;-84
2022/06/08 02:21:48;;;;;;;2.83;2.40;;;;;;;13.99;92.21;97273.53;6210779;28;20236;-84
2022/06/08 02:25:13;;;;;;;3.13;2.60;;;;;;;13.96;92.40;97265.91;6211136;28;20616;-84
2022/06/08 02:28:19;;;;;;;2.77;2.57;;;;;;;13.97;92.57;97270.19;6195406;28;20314;-84
2022/06/08 02:31:32;;;;;;;2.60;2.40;;;;;;;13.95;92.48;97264.22;6211207;28;20691;-84
2022/06/08 02:34:41;;;;;;;3.47;2.80;;;;;;;13.94;92.32;97273.19;6209948;28;20397;-84
2022/06/08 02:37:47;;;;;;;3.10;2.80;;;;;;;13.96;92.84;97271.22;6227777;28;20653;-84
2022/06/08 02:40:54;;;;;;;3.17;2.87;;;;;;;13.95;92.91;97266.88;6211636;28;20366;-84
2022/06/08 02:44:01;;;;;;;3.13;2.63;;;;;;;13.92;93.00;97269.00;6221020;28;20723;-84
2022/06/08 02:47:15;;;;;;;3.20;2.90;;;;;;;13.92;92.87;97261.03;6200407;28;20229;-83
2022/06/08 02:50:23;;;;;;;3.13;2.90;;;;;;;13.89;92.87;97264.00;6219272;28;20231;-84
2022/06/08 02:53:33;;;;;;;3.67;2.70;;;;;;;13.86;92.96;97267.81;6240435;28;20271;-84
2022/06/08 02:56:49;;;;;;;3.60;3.27;;;;;;;13.83;92.64;97275.22;6221856;28;20754;-84
2022/06/08 03:00:04;;;;;;;3.87;3.17;;;;;;;13.85;92.75;97278.56;6229819;28;20243;-84
2022/06/08 03:03:14;;;;;;;4.00;3.13;;;;;;;13.87;92.82;97271.28;6247896;28;20621;-83
2022/06/08 03:06:23;;;;;;;3.50;3.20;;;;;;;13.85;92.85;97274.09;6204057;28;20220;-84
2022/06/08 03:09:26;;;;;;;3.07;2.87;;;;;;;13.82;93.11;97263.78;6213131;28;20259;-84
2022/06/08 03:12:38;;;;;;;3.93;3.40;;;;;;;13.82;92.89;97258.47;6212808;28;20247;-84
2022/06/08 03:15:43;;;;;;;3.10;2.80;;;;;;;13.85;93.13;97262.66;6196736;28;20244;-84
2022/06/08 03:18:45;;;;;;;3.83;2.97;;;;;;;13.83;93.35;97260.16;6229505;28;20732;-84
2022/06/08 03:21:48;;;;;;;3.07;2.87;;;;;;;13.83;93.30;97272.56;6188062;28;20239;-84
2022/06/08 03:24:52;;;;;;;3.93;3.43;;;;;;;13.84;93.02;97266.28;6194342;28;20228;-86
2022/06/08 03:27:55;;;;;;;3.00;2.77;;;;;;;13.84;93.17;97266.28;6227903;28;20627;-86
2022/06/08 03:30:59;;;;;;;3.47;3.17;;;;;;;13.87;92.69;97281.91;6227839;28;20232;-87
2022/06/08 03:34:04;;;;;;;4.13;2.90;;;;;;;13.88;93.10;97280.91;6217090;28;20232;-85
2022/06/08 03:37:08;;;;;;;3.60;3.30;;;;;;;13.89;92.71;97279.91;6227796;28;20247;-84
2022/06/08 03:40:14;;;;;;;3.63;3.33;;;;;;;13.91;92.53;97280.59;6217697;28;20631;-84
2022/06/08 03:43:16;;;;;;;3.43;3.13;;;;;;;13.93;92.64;97282.13;6230074;28;20232;-84
2022/06/08 03:46:19;;;;;;;3.77;3.30;;;;;;;14.00;92.77;97288.47;6213761;28;20292;-85
2022/06/08 03:49:25;;;;;;;3.20;3.00;;;;;;;14.05;92.93;97295.97;6217085;28;20239;-84
2022/06/08 03:52:32;;;;;;;4.53;3.10;;;;;;;14.09;92.23;97299.13;6216313;28;20231;-84
2022/06/08 03:55:36;;;;;;;4.63;3.47;;;;;;;14.13;92.37;97303.16;6192598;28;20708;-85
2022/06/08 03:58:38;;;;;;;2.90;2.67;;;;;;;14.18;92.64;97306.16;6224785;28;20813;-85
2022/06/08 04:01:47;;;;;;;3.17;2.87;;;;;;;14.21;92.20;97303.22;6218343;28;20236;-85
2022/06/08 04:04:51;;;;;;;4.63;3.03;;;;;;;14.22;92.10;97302.22;6221238;28;20236;-84
2022/06/08 04:07:54;;;;;;;2.83;2.63;;;;;;;14.22;91.84;97303.06;6209659;28;20315;-84
2022/06/08 04:10:58;;;;;;;3.53;3.23;;;;;;;14.25;92.28;97299.28;6214047;28;20231;-84
2022/06/08 04:14:03;;;;;;;5.17;3.17;;;;;;;14.26;91.87;97303.59;6232530;28;20228;-84
2022/06/08 04:17:07;;;;;;;3.37;2.70;;;;;;;14.27;92.25;97302.63;6233466;28;20224;-84
2022/06/08 04:20:11;;;;;;;3.10;2.90;;;;;;;14.34;91.92;97293.03;6233861;28;20232;-84
2022/06/08 04:23:14;;;;;;;3.87;3.50;;;;;;;14.42;92.08;97298.41;6215047;28;20231;-84
2022/06/08 04:26:17;;;;;;;3.43;2.80;;;;;;;14.49;91.89;97290.66;6207351;28;20224;-83
2022/06/08 04:29:21;;;;;;;3.77;3.20;;;;;;;14.56;91.66;97294.38;6215416;28;20596;-84
2022/06/08 04:32:23;;;;;;;3.70;3.40;;;;;;;14.56;91.24;97283.75;6219250;28;20231;-84
2022/06/08 04:35:27;;;;;;;4.30;3.57;;;;;;;14.58;90.86;97285.22;6247786;28;20680;-84
2022/06/08 04:38:30;;;;;;;4.30;3.80;;;;;;;14.60;90.73;97280.59;6231354;28;20238;-85
2022/06/08 04:41:35;;;;;;;3.70;3.40;;;;;;;14.69;90.93;97284.13;6247853;28;20228;-84
2022/06/08 04:44:38;;;;;;;7.20;4.30;;;;;;;14.74;90.29;97284.50;6230821;28;20236;-85
2022/06/08 04:47:45;;;;;;;6.33;4.60;;;;;;;14.78;89.90;97289.31;6231405;28;20299;-84
2022/06/08 04:50:49;;;;;;;4.67;4.20;;;;;;;14.90;90.39;97291.69;6247909;28;20314;-85
2022/06/08 04:53:52;;;;;;;6.67;5.23;;;;;;;14.96;89.25;97291.06;6231433;28;20272;-85
2022/06/08 04:56:56;;;;;;;6.67;4.67;;;;;;;15.05;89.36;97285.63;6215031;28;20270;-86
2022/06/08 04:59:58;;;;;;;5.20;4.63;;;;;;;15.13;89.17;97284.81;6214125;28;20456;-85
2022/06/08 05:03:01;;;;;;;4.57;4.17;;;;;;;15.20;88.73;97283.16;6206705;28;20268;-85
2022/06/08 05:06:07;;;;;;;5.70;5.13;;;;;;;15.22;88.78;97286.50;6214017;28;20240;-85
2022/06/08 05:09:10;;;;;;;4.90;4.50;;;;;;;15.20;88.48;97288.50;6213966;28;20270;-85
2022/06/08 05:12:17;;;;;;;4.83;4.23;;;;;;;15.26;88.82;97295.84;6215125;28;20208;-85
2022/06/08 05:15:29;;;;;;;5.00;4.57;;;;;;;15.29;88.65;97294.66;6214018;28;20258;-85
2022/06/08 05:18:34;;;;;;;7.03;4.70;;;;;;;15.30;88.88;97305.13;6198888;28;20302;-85
2022/06/08 05:21:40;;;;;;;5.43;4.00;;;;;;;15.37;88.81;97302.69;6213573;28;20595;-84
2022/06/08 05:24:49;;;;;;;5.40;4.90;;;;;;;15.39;88.32;97305.97;6199316;28;20716;-85
2022/06/08 05:27:53;;;;;;;5.57;4.73;;;;;;;15.39;88.17;97306.81;6215218;28;20703;-85
2022/06/08 05:30:56;;;;;;;8.23;4.40;;;;;;;15.49;88.29;97307.50;6222792;28;20227;-85
2022/06/08 05:34:01;;;;;;;6.43;4.63;;;;;;;15.52;87.83;97304.53;6237997;28;20234;-85
2022/06/08 05:37:04;;;;;;;5.07;4.40;;;;;;;15.55;87.58;97302.59;6232032;28;20220;-85
2022/06/08 05:40:07;;;;;;;4.50;4.10;;;;;;;15.55;87.80;97306.06;6213261;28;20362;-85
2022/06/08 05:43:13;;;;;;;5.97;5.37;;;;;;;15.58;87.67;97315.53;6196870;28;20231;-85
2022/06/08 05:46:21;;;;;;;8.50;4.37;;;;;;;15.65;87.32;97311.25;6198390;28;20707;-86
2022/06/08 05:49:34;;;;;;;6.27;4.70;;;;;;;15.71;87.13;97316.72;6213649;28;20390;-85
2022/06/08 05:52:40;;;;;;;4.70;4.07;;;;;;;15.72;86.23;97314.91;6212931;28;20753;-85
2022/06/08 05:55:43;;;;;;;5.63;4.70;;;;;;;15.78;86.22;97307.09;6189599;28;20588;-85
2022/06/08 05:58:46;;;;;;;4.90;4.40;;;;;;;15.79;85.83;97310.59;6209432;28;20227;-84
2022/06/08 06:01:51;;;;;;;4.97;4.47;;;;;;;15.83;85.76;97304.78;6200090;28;20244;-85
2022/06/08 06:04:53;;;;;;;5.50;4.40;;;;;;;15.80;85.61;97304.25;6199834;28;20243;-86
2022/06/08 06:07:57;;;;;;;4.67;4.07;;;;;;;15.78;85.92;97298.28;6211809;28;20239;-86
2022/06/08 06:11:08;;;;;;;4.80;3.93;;;;;;;15.77;85.66;97294.78;6229355;28;20228;-86
2022/06/08 06:14:17;;;;;;;4.93;4.20;;;;;;;15.76;84.44;97290.47;6212025;28;20224;-85
2022/06/08 06:17:21;;;;;;;4.53;4.13;;;;;;;15.81;84.58;97289.97;6229359;28;20353;-86
2022/06/08 06:20:26;;;;;;;7.70;4.23;;;;;;;15.83;84.68;97286.16;6221552;28;20229;-86
2022/06/08 06:23:46;;;;;;;4.53;3.70;;;;;;;15.85;84.81;97281.50;6229041;28;20311;-85
2022/06/08 06:27:09;;;;;;;5.73;4.10;;;;;;;15.91;84.41;97279.16;6216841;28;20256;-84
2022/06/08 06:30:44;;;;;;;5.53;3.20;;;;;;;15.88;83.59;97282.97;6184168;28;20727;-85
2022/06/08 06:34:11;;;;;;;4.27;3.47;;;;;;;15.91;83.99;97282.66;6220893;28;20241;-84
2022/06/08 06:37:14;;;;;;;3.90;3.50;;;;;;;15.96;83.97;97285.66;6228791;28;20703;-85
2022/06/08 06:40:17;;;;;;;3.53;3.20;;;;;;;16.04;83.59;97285.66;6227019;28;20229;-84
2022/06/08 06:43:21;;;;;;;6.77;3.53;;;;;;;16.12;83.12;97295.47;6232233;28;20231;-85
2022/06/08 06:46:49;;;;;;;3.87;3.23;;;;;;;16.21;82.41;97299.78;6221572;28;20230;-84
2022/06/08 06:50:08;;;;;;;5.37;2.90;;;;;;;16.36;82.26;97299.94;6229336;28;20730;-85
2022/06/08 06:53:13;;;;;;;3.13;2.83;;;;;;;16.47;82.16;97294.28;6196758;28;20227;-85
2022/06/08 06:56:22;;;;;;;4.80;3.07;;;;;;;16.60;82.17;97294.56;6221131;28;20580;-85
2022/06/08 06:59:38;;;;;;;3.43;3.13;;;;;;;16.75;81.82;97294.75;6210099;28;20665;-85
2022/06/08 07:02:42;;;;;;;2.73;2.53;;;;;;;16.82;81.09;97290.38;6229000;28;20231;-84
2022/06/08 07:05:45;;;;;;;3.27;2.80;;;;;;;17.14;80.56;97290.25;6211519;28;20227;-84
2022/06/08 07:08:48;;;;;;;2.70;2.50;;;;;;;17.35;79.41;97289.66;6229691;28;20594;-84
2022/06/08 07:11:59;;;;;;;4.20;2.97;;;;;;;17.51;78.96;97289.56;6212025;28;20261;-85
2022/06/08 07:15:07;;;;;;;3.53;3.23;;;;;;;17.87;78.22;97286.31;6197573;28;20652;-85
2022/06/08 07:18:15;;;;;;;2.20;2.03;;;;;;;18.57;76.44;97288.72;6221272;28;20550;-85
2022/06/08 07:21:19;;;;;;;4.43;2.50;;;;;;;19.23;73.78;97274.44;6217738;28;20707;-84
2022/06/08 07:24:30;;;;;;;2.30;1.90;;;;;;;19.48;70.78;97278.47;6203313;28;20255;-85
2022/06/08 07:27:32;;;;;;;4.10;2.00;;;;;;;19.59;69.87;97274.47;6214023;28;20224;-85
2022/06/08 07:30:36;;;;;;;3.83;1.93;;;;;;;19.80;69.27;97277.16;6210499;28;20231;-85
2022/06/08 07:33:39;;;;;;;2.30;2.07;;;;;;;20.14;68.78;97267.59;6228130;28;20236;-85
2022/06/08 07:36:44;;;;;;;2.47;1.90;;;;;;;20.39;67.89;97268.84;6210867;28;20287;-86
2022/06/08 07:39:46;;;;;;;2.50;1.87;;;;;;;20.47;68.20;97270.53;6212082;28;20224;-86
2022/06/08 07:42:49;;;;;;;1.93;1.40;;;;;;;20.59;68.04;97274.34;6211537;28;20338;-85
2022/06/08 07:45:52;;;;;;;2.20;1.90;;;;;;;20.76;67.15;97264.16;6197130;28;20299;-84
2022/06/08 07:52:19;;;;;;;1.93;1.83;;;;;;;20.65;64.71;97268.22;6241675;28;20258;-85
2022/06/08 07:55:22;;;;;;;3.70;2.10;;;;;;;20.67;64.05;97259.94;6203117;28;20319;-85
2022/06/08 07:58:24;;;;;;;2.33;2.13;;;;;;;20.75;64.48;97254.47;6198182;28;20720;-85
2022/06/08 08:01:26;;;;;;;3.20;2.10;;;;;;;21.10;63.93;97261.44;6252927;28;20297;-84
2022/06/08 08:04:28;;;;;;;2.57;1.83;;;;;;;21.36;63.11;97253.50;6232125;28;20284;-85
2022/06/08 08:07:31;;;;;;;2.80;1.97;;;;;;;21.49;62.59;97252.75;6228236;28;20236;-85
2022/06/08 08:10:33;;;;;;;1.87;1.77;;;;;;;21.64;62.48;97252.59;6211225;28;20593;-84
2022/06/08 08:13:37;;;;;;;2.50;2.30;;;;;;;21.59;61.51;97239.75;6211452;28;20250;-85
2022/06/08 08:16:41;;;;;;;2.63;2.43;;;;;;;21.66;60.95;97232.53;6210895;28;20717;-84
2022/06/08 08:19:43;;;;;;;3.17;2.50;;;;;;;21.67;60.36;97236.88;6209788;28;20277;-85
2022/06/08 08:22:47;;;;;;;3.47;2.07;;;;;;;21.87;59.97;97226.16;6210709;28;20607;-85
2022/06/08 08:25:49;;;;;;;2.03;1.93;;;;;;;21.91;59.67;97227.41;6210302;28;20235;-84
2022/06/08 08:28:51;;;;;;;2.77;2.57;;;;;;;22.29;58.77;97230.34;6226921;28;20223;-84
2022/06/08 08:31:53;;;;;;;5.50;2.60;;;;;;;22.22;56.86;97234.88;6228767;28;20220;-85
2022/06/08 08:34:55;;;;;;;2.60;2.40;;;;;;;22.29;57.22;97233.03;6214630;28;20689;-85
2022/06/08 08:38:00;;;;;;;4.40;2.20;;;;;;;22.51;57.91;97227.41;6215628;28;20227;-84
2022/06/08 08:41:03;;;;;;;3.53;2.07;;;;;;;22.73;56.50;97226.13;6198306;28;20244;-84
2022/06/08 08:44:05;;;;;;;4.23;2.60;;;;;;;23.16;54.79;97227.25;6214436;28;20232;-85
2022/06/08 08:47:35;;;;;;;2.80;2.50;;;;;;;23.42;55.46;97218.22;6232049;28;20699;-84
2022/06/08 08:50:49;;;;;;;2.70;2.27;;;;;;;23.85;54.13;97207.63;6214232;28;20260;-84
2022/06/08 08:54:10;;;;;;;4.00;2.40;;;;;;;23.84;51.99;97211.38;6231702;28;20729;-84
2022/06/08 08:57:12;;;;;;;1.93;1.73;;;;;;;23.55;52.19;97211.97;6214107;28;20228;-86
2022/06/08 09:00:39;;;;;;;2.37;1.93;;;;;;;24.28;54.86;97206.88;6243864;28;20232;-86
2022/06/08 09:03:45;;;;;;;3.77;2.20;;;;;;;24.49;51.66;97203.78;6213814;28;20235;-84
2022/06/08 09:06:48;;;;;;;2.83;2.27;;;;;;;24.23;51.78;97202.19;6199449;28;20258;-83
2022/06/08 09:09:50;;;;;;;4.20;2.43;;;;;;;24.11;51.44;97197.69;6232386;28;20224;-85
2022/06/08 09:12:54;;;;;;;5.40;2.17;;;;;;;24.31;50.42;97203.75;6232039;28;20310;-85
2022/06/08 09:15:59;;;;;;;3.00;2.30;;;;;;;24.53;48.78;97201.47;6231806;28;20721;-86
2022/06/08 09:19:21;;;;;;;2.50;2.30;;;;;;;24.22;48.93;97189.72;6213495;28;20219;-86
2022/06/08 09:22:29;;;;;;;3.87;2.57;;;;;;;24.39;50.63;97189.16;6231675;28;20228;-86
2022/06/08 09:25:35;;;;;;;2.10;1.90;;;;;;;24.70;49.14;97183.63;6203744;28;20398;-86
2022/06/08 09:28:41;;;;;;;3.97;2.67;;;;;;;25.15;47.39;97183.38;6212633;28;20620;-86
2022/06/08 09:31:44;;;;;;;2.58;2.38;;;;;;;25.15;46.46;97177.97;6230799;28;20231;-86
2022/06/08 09:34:57;;;;;;;3.50;2.17;;;;;;;25.51;45.89;97163.53;6214723;28;20289;-86
2022/06/08 09:38:02;;;;;;;2.80;1.80;;;;;;;25.67;47.35;97171.00;6197375;28;20216;-87
2022/06/08 09:41:20;;;;;;;2.42;2.22;;;;;;;25.78;45.26;97158.56;6229821;28;20257;-86
2022/06/08 09:44:32;;;;;;;2.22;1.98;;;;;;;26.00;45.99;97159.66;6223504;28;20270;-86
2022/06/08 09:51:26;;;;;;;2.45;2.25;;;;;;;25.97;46.45;97149.31;6224907;28;20220;-86
2022/06/08 09:54:42;;;;;;;5.18;1.73;;;;;;;26.15;45.00;97156.53;6229633;28;20731;-85
2022/06/08 09:58:14;;;;;;;4.28;2.80;;;;;;;26.25;44.78;97135.94;6205017;28;20233;-86
2022/06/08 10:01:27;;;;;;;2.55;2.20;;;;;;;26.71;46.84;97143.19;6184410;28;20241;-85
2022/06/08 10:04:38;;;;;;;2.80;2.10;;;;;;;27.11;44.52;97145.13;6204096;28;20240;-86
2022/06/08 10:07:51;;;;;;;2.33;1.80;;;;;;;26.73;43.94;97132.97;6197181;28;20798;-86
2022/06/08 10:11:36;;;;;;;4.07;2.00;;;;;;;26.29;40.58;97131.72;6229388;28;20228;-86
2022/06/08 10:14:49;;;;;;;1.98;1.77;;;;;;;26.24;45.76;97136.16;6229007;28;20231;-86
2022/06/08 10:17:58;;;;;;;4.50;2.25;;;;;;;25.94;46.07;97137.09;6228870;28;20228;-86
2022/06/08 10:21:10;;;;;;;2.28;2.08;;;;;;;26.28;45.90;97130.06;6228734;28;20231;-86
2022/06/08 10:24:19;;;;;;;2.72;1.88;;;;;;;26.92;44.83;97124.69;6212618;28;20359;-86
2022/06/08 10:27:29;;;;;;;4.85;1.77;;;;;;;27.42;43.21;97114.00;6228379;28;20548;-86
2022/06/08 10:30:41;;;;;;;1.77;1.67;;;;;;;27.65;43.00;97113.88;6197172;28;20594;-86
2022/06/08 10:33:55;;;;;;;2.40;1.85;;;;;;;27.99;44.44;97112.00;6228185;28;20235;-86
2022/06/08 10:37:06;;;;;;;2.67;1.83;;;;;;;28.17;40.30;97100.09;6228158;28;20235;-86
2022/06/08 10:40:15;;;;;;;2.08;1.50;;;;;;;27.93;40.09;97102.16;6228257;28;20224;-86
2022/06/08 10:43:32;;;;;;;2.15;1.95;;;;;;;27.67;40.91;97102.81;6230048;28;20369;-86
2022/06/08 10:46:45;;;;;;;2.40;1.50;;;;;;;28.07;39.33;97108.06;6227917;28;20683;-86
2022/06/08 10:49:52;;;;;;;4.60;1.77;;;;;;;28.33;38.64;97093.00;6244993;28;20231;-86
2022/06/08 10:54:53;;;;;;;1.98;1.55;;;;;;;28.09;39.06;97095.06;6228498;28;20238;-86
2022/06/08 10:56:23;;;;;;;2.42;1.45;;;;;;;27.99;40.72;97105.75;6205029;28;20599;-86
2022/06/08 10:59:29;;;;;;;2.72;1.52;;;;;;;27.65;40.70;97100.31;6226756;28;20235;-86
2022/06/08 11:02:34;;;;;;;1.50;1.40;;;;;;;27.55;39.70;97098.28;6226726;28;20224;-86
2022/06/08 11:05:40;;;;;;;2.38;1.98;;;;;;;27.54;39.61;97098.50;6213236;28;20622;-86
2022/06/08 11:08:56;;;;;;;2.90;1.70;;;;;;;26.76;39.28;97097.25;6211641;28;20319;-86
2022/06/08 11:12:05;;;;;;;1.65;1.55;;;;;;;26.31;40.40;97115.25;6211713;28;20231;-86
2022/06/08 11:15:26;;;;;;;3.13;1.67;;;;;;;26.45;40.58;97103.13;6211121;28;20366;-86
2022/06/08 11:18:46;;;;;;;1.60;1.10;;;;;;;26.45;39.50;97095.00;6211326;28;20752;-86
2022/06/08 11:21:57;;;;;;;1.75;1.52;;;;;;;26.16;41.01;97093.22;6211704;28;20228;-86
2022/06/08 11:25:04;;;;;;;2.08;1.10;;;;;;;26.28;43.05;97096.78;6192288;28;20461;-86
2022/06/08 11:28:24;;;;;;;1.48;1.13;;;;;;;26.02;43.23;97101.59;6211784;28;20358;-85
2022/06/08 11:31:27;;;;;;;2.63;1.10;;;;;;;25.87;45.35;97103.91;6211992;28;20234;-86
2022/06/08 11:35:15;;;;;;;1.35;1.25;;;;;;;25.75;42.09;97096.88;6211133;28;20285;-85
2022/06/08 11:38:35;;;;;;;4.38;1.23;;;;;;;25.35;44.06;97092.06;6227088;28;20599;-85
2022/06/08 11:41:42;;;;;;;2.05;1.20;;;;;;;25.99;44.66;97095.81;6211035;28;20297;-85
2022/06/08 11:44:52;;;;;;;3.47;1.27;;;;;;;26.51;43.98;97101.34;6211077;28;20231;-85
2022/06/08 11:48:14;;;;;;;2.63;1.00;;;;;;;26.87;45.38;97095.59;6209870;28;20231;-85
2022/06/08 11:51:41;;;;;;;3.30;1.42;;;;;;;27.15;42.86;97101.03;6202530;28;20236;-85
2022/06/08 11:54:43;;;;;;;1.58;1.40;;;;;;;27.75;42.41;97088.84;6222774;28;20254;-85
2022/06/08 11:57:47;;;;;;;1.20;1.10;;;;;;;27.81;42.83;97088.69;6187939;28;20275;-86
2022/06/08 12:00:53;;;;;;;1.45;1.35;;;;;;;27.36;39.67;97083.25;6208608;28;20453;-85
2022/06/08 12:04:03;;;;;;;2.05;1.33;;;;;;;26.87;43.45;97087.47;6226638;28;20240;-86
2022/06/08 12:07:43;;;;;;;1.17;1.08;;;;;;;27.25;43.02;97077.94;6213873;28;20278;-85
2022/06/08 12:10:46;;;;;;;1.65;1.33;;;;;;;27.15;43.12;97073.16;6215443;28;20401;-85
2022/06/08 12:14:03;;;;;;;2.30;1.10;;;;;;;27.36;44.34;97067.00;6216294;28;20228;-86
2022/06/08 12:17:17;;;;;;;1.50;1.13;;;;;;;27.44;43.00;97063.09;6217529;28;20692;-85
2022/06/08 12:20:35;;;;;;;1.98;1.10;;;;;;;28.47;43.45;97064.41;6233215;28;20227;-85
2022/06/08 12:23:54;;;;;;;1.60;1.10;;;;;;;29.31;42.52;97048.56;6208526;28;20678;-85
2022/06/08 12:27:00;;;;;;;1.48;1.20;;;;;;;29.36;39.28;97060.31;6209609;28;20393;-86
2022/06/08 12:30:19;;;;;;;1.30;1.20;;;;;;;28.94;40.62;97062.03;6239362;28;20219;-85
2022/06/08 12:33:29;;;;;;;2.22;1.25;;;;;;;28.59;40.70;97055.06;6215323;28;20232;-85
2022/06/08 12:36:33;;;;;;;3.10;1.13;;;;;;;28.27;42.61;97054.94;6215102;28;20227;-86
2022/06/08 12:39:39;;;;;;;1.02;1.02;;;;;;;27.84;40.99;97047.50;6214450;28;20250;-85
2022/06/08 12:43:13;;;;;;;1.27;1.00;;;;;;;27.81;43.45;97041.75;6215048;28;20721;-85
2022/06/08 12:46:26;;;;;;;2.78;0.90;;;;;;;27.81;43.15;97033.63;6214486;28;20707;-86
2022/06/08 12:49:44;;;;;;;3.83;1.25;;;;;;;28.10;43.59;97026.16;6214524;28;20236;-87
2022/06/08 12:52:46;;;;;;;4.13;1.10;;;;;;;28.88;41.06;97028.53;6213804;28;20228;-85
2022/06/08 12:55:52;;;;;;;1.40;1.25;;;;;;;28.56;39.18;97022.16;6230570;28;20246;-86
2022/06/08 12:58:55;;;;;;;3.20;1.67;;;;;;;27.94;41.88;97022.44;6219191;28;20696;-87
2022/06/08 13:01:59;;;;;;;4.32;1.17;;;;;;;27.40;42.56;97026.69;6216342;28;20629;-86
2022/06/08 13:05:24;;;;;;;1.23;1.10;;;;;;;26.70;43.08;97030.56;6216895;28;20258;-86
2022/06/08 13:08:27;;;;;;;2.42;1.70;;;;;;;26.64;45.04;97031.53;6233745;28;20232;-86
2022/06/08 13:11:29;;;;;;;2.58;1.48;;;;;;;27.36;44.33;97020.94;6215391;28;20262;-86
2022/06/08 13:14:33;;;;;;;2.90;1.10;;;;;;;28.51;42.23;97019.41;6214799;28;20731;-86
2022/06/08 13:17:36;;;;;;;4.30;1.55;;;;;;;29.45;40.27;97013.66;6212901;28;20228;-86
2022/06/08 13:20:39;;;;;;;2.50;1.40;;;;;;;30.20;38.55;97013.34;6212893;28;20230;-86
2022/06/08 13:23:41;;;;;;;1.40;1.20;;;;;;;30.69;35.74;97000.25;6196985;28;20232;-86
2022/06/08 13:26:49;;;;;;;1.10;1.00;;;;;;;30.83;33.53;97002.47;6199607;28;20418;-86
2022/06/08 13:29:52;;;;;;;2.15;0.82;;;;;;;30.60;33.97;96998.31;6192202;28;20232;-85
2022/06/08 13:32:56;;;;;;;2.70;1.05;;;;;;;29.98;34.79;96988.19;6190203;28;20228;-86
2022/06/08 13:36:00;;;;;;;1.95;1.20;;;;;;;29.25;36.62;96997.91;6215699;28;20593;-87
2022/06/08 13:39:08;;;;;;;1.80;1.20;;;;;;;28.20;36.72;96986.44;6218312;28;20221;-86
2022/06/08 13:42:17;;;;;;;1.55;1.13;;;;;;;27.67;38.41;96992.44;6214244;28;20392;-85
2022/06/08 13:45:28;;;;;;;2.95;1.23;;;;;;;27.71;40.79;96988.19;6207174;28;20669;-86
2022/06/08 13:48:31;;;;;;;1.55;1.15;;;;;;;27.78;42.06;96993.41;6203993;28;20607;-86
2022/06/08 13:51:33;;;;;;;1.90;1.10;;;;;;;27.74;41.60;96984.16;6213561;28;20564;-86
2022/06/08 13:54:39;;;;;;;1.95;1.25;;;;;;;27.52;42.73;96984.06;6230282;28;20228;-86
2022/06/08 13:57:41;;;;;;;3.35;1.10;;;;;;;27.17;43.53;96976.16;6213252;28;20228;-86
2022/06/08 14:01:12;;;;;;;1.42;1.10;;;;;;;27.28;45.28;96985.28;6224880;28;20366;-86
2022/06/08 14:04:19;;;;;;;1.48;1.02;;;;;;;27.10;45.76;96975.50;6197992;28;20406;-86
2022/06/08 14:14:09;;;;;;;1.58;1.48;;;;;;;26.49;47.91;96968.97;6231030;28;20268;-86
2022/06/08 14:17:14;;;;;;;1.98;1.20;;;;;;;26.51;48.14;96969.53;6213604;28;20262;-86
2022/06/08 14:20:37;;;;;;;4.15;1.10;;;;;;;26.41;48.37;96963.94;6213210;28;20281;-85
2022/06/08 14:23:43;;;;;;;3.55;1.27;;;;;;;26.25;48.50;96968.19;6197038;28;20232;-85
2022/06/08 14:26:46;;;;;;;2.15;1.20;;;;;;;26.17;48.30;96956.91;6230458;28;20231;-85
2022/06/08 14:29:54;;;;;;;2.25;1.00;;;;;;;26.39;48.04;96952.53;6203642;28;20313;-85
2022/06/08 14:33:00;;;;;;;2.38;0.95;;;;;;;26.60;47.40;96946.44;6225317;28;20228;-86
2022/06/08 14:36:03;;;;;;;1.92;1.10;;;;;;;26.71;47.18;96945.56;6188159;28;20700;-85
2022/06/08 14:39:29;;;;;;;2.75;1.08;;;;;;;26.91;46.90;96938.84;6182145;28;20592;-86
2022/06/08 14:42:31;;;;;;;1.05;0.98;;;;;;;26.50;47.84;96942.72;6211342;28;20640;-86
2022/06/08 14:45:36;;;;;;;4.32;1.23;;;;;;;26.23;48.29;96943.25;6211512;28;20235;-86
2022/06/08 14:48:46;;;;;;;3.90;1.52;;;;;;;26.26;48.05;96937.34;6210676;28;20223;-86
2022/06/08 14:51:49;;;;;;;4.07;1.92;;;;;;;26.74;46.94;96938.84;6233719;28;20222;-85
2022/06/08 14:54:52;;;;;;;4.50;1.65;;;;;;;28.91;42.00;96932.97;6195712;28;20231;-86
2022/06/08 14:57:56;;;;;;;3.72;1.30;;;;;;;33.12;34.86;96924.44;6213139;28;20717;-86
2022/06/08 15:00:58;;;;;;;3.03;1.20;;;;;;;35.19;30.70;96912.97;6195559;28;20224;-86
2022/06/08 15:04:00;;;;;;;3.80;1.30;;;;;;;37.15;27.92;96909.34;6212577;28;20246;-86